createdAt,value
2023-03-29T00:00:23.023Z,15.66
2023-03-29T00:02:50.254Z,15.62
2023-03-29T00:05:23.099Z,15.63
2023-03-29T00:07:54.088Z,15.57
2023-03-29T00:10:24.099Z,15.59
2023-03-29T00:12:52.609Z,15.48
2023-03-29T00:15:20.199Z,15.43
2023-03-29T00:17:47.029Z,15.47
2023-03-29T00:20:13.945Z,15.48
2023-03-29T00:22:42.264Z,15.44
2023-03-29T00:25:11.384Z,15.40
2023-03-29T00:27:38.464Z,15.41
2023-03-29T00:30:07.211Z,15.36
2023-03-29T00:32:34.896Z,15.40
2023-03-29T00:35:01.876Z,15.29
2023-03-29T00:37:30.039Z,15.18
2023-03-29T00:39:57.913Z,15.26
2023-03-29T00:42:25.774Z,15.27
2023-03-29T00:45:04.353Z,15.22
2023-03-29T00:47:39.997Z,15.25
2023-03-29T00:50:12.635Z,15.28
2023-03-29T00:52:41.268Z,15.17
2023-03-29T00:55:13.290Z,15.11
2023-03-29T00:57:41.106Z,15.12
2023-03-29T01:00:10.204Z,15.10
2023-03-29T01:02:40.055Z,15.10
2023-03-29T01:05:15.562Z,15.05
2023-03-29T01:08:06.781Z,14.92
2023-03-29T01:10:42.133Z,14.96
2023-03-29T01:13:18.269Z,14.98
2023-03-29T01:15:46.982Z,15.00
2023-03-29T01:18:16.006Z,15.00
2023-03-29T01:21:03.169Z,15.04
2023-03-29T01:23:40.310Z,14.99
2023-03-29T01:26:19.685Z,15.01
2023-03-29T01:29:11.422Z,15.05
2023-03-29T01:31:44.738Z,15.06
2023-03-29T01:34:28.055Z,15.08
2023-03-29T01:37:04.477Z,14.98
2023-03-29T01:39:34.240Z,15.03
2023-03-29T01:42:14.197Z,14.95
2023-03-29T01:44:46.972Z,14.96
2023-03-29T01:47:23.780Z,15.00
2023-03-29T01:50:10.165Z,15.00
2023-03-29T01:52:45.511Z,15.03
2023-03-29T01:55:26.439Z,14.93
2023-03-29T01:57:56.368Z,14.95
2023-03-29T02:00:27.675Z,14.91
2023-03-29T02:03:00.483Z,14.90
2023-03-29T02:05:30.683Z,14.93
2023-03-29T02:08:00.422Z,14.93
2023-03-29T02:10:27.483Z,14.91
2023-03-29T02:12:54.328Z,14.87
2023-03-29T02:15:21.774Z,14.89
2023-03-29T02:17:49.506Z,14.91
2023-03-29T02:20:24.183Z,14.92
2023-03-29T02:23:13.751Z,14.86
2023-03-29T02:25:42.293Z,14.85
2023-03-29T02:28:09.559Z,14.82
2023-03-29T02:31:05.593Z,14.82
2023-03-29T02:33:45.792Z,14.70
2023-03-29T02:36:28.212Z,14.66
2023-03-29T02:38:56.522Z,14.68
2023-03-29T02:41:25.776Z,14.63
2023-03-29T02:43:54.092Z,14.53
2023-03-29T02:46:21.487Z,14.60
2023-03-29T02:48:51.991Z,14.60
2023-03-29T02:51:22.695Z,14.64
2023-03-29T02:53:57.192Z,14.62
2023-03-29T02:56:24.030Z,14.62
2023-03-29T02:58:50.819Z,14.62
2023-03-29T03:01:20.446Z,14.56
2023-03-29T03:03:50.842Z,14.62
2023-03-29T03:06:18.629Z,14.66
2023-03-29T03:08:45.710Z,14.66
2023-03-29T03:11:12.485Z,14.69
2023-03-29T03:13:39.557Z,14.64
2023-03-29T03:16:07.978Z,14.69
2023-03-29T03:18:37.369Z,14.51
2023-03-29T03:21:04.654Z,14.54
2023-03-29T03:23:32.062Z,14.57
2023-03-29T03:25:59.227Z,14.59
2023-03-29T03:28:27.436Z,14.60
2023-03-29T03:30:55.142Z,14.58
2023-03-29T03:33:26.918Z,14.57
2023-03-29T03:36:12.295Z,14.56
2023-03-29T03:38:44.261Z,14.55
2023-03-29T03:41:11.735Z,14.53
2023-03-29T03:43:41.522Z,14.53
2023-03-29T03:46:08.743Z,14.51
2023-03-29T03:48:37.187Z,14.36
2023-03-29T03:51:28.576Z,14.39
2023-03-29T03:53:55.439Z,14.26
2023-03-29T03:56:34.461Z,14.30
2023-03-29T03:59:04.045Z,14.31
2023-03-29T04:01:37.834Z,14.29
2023-03-29T04:04:14.541Z,14.33
2023-03-29T04:06:51.762Z,14.30
2023-03-29T04:09:34.854Z,14.30
2023-03-29T04:12:24.402Z,14.28
2023-03-29T04:14:51.405Z,14.30
2023-03-29T04:17:22.219Z,14.04
2023-03-29T04:20:02.241Z,13.87
2023-03-29T04:22:33.287Z,14.00
2023-03-29T04:25:00.290Z,13.69
2023-03-29T04:27:39.429Z,13.82
2023-03-29T04:30:14.349Z,13.86
2023-03-29T04:33:16.304Z,13.95
2023-03-29T04:35:48.225Z,13.98
2023-03-29T04:38:17.524Z,13.97
2023-03-29T04:40:46.576Z,13.93
2023-03-29T04:43:23.762Z,13.96
2023-03-29T04:46:00.195Z,13.87
2023-03-29T04:48:53.084Z,13.79
2023-03-29T04:51:29.103Z,13.87
2023-03-29T04:53:57.548Z,13.77
2023-03-29T04:56:24.377Z,13.82
2023-03-29T04:59:09.782Z,13.75
2023-03-29T05:01:37.222Z,13.69
2023-03-29T05:04:05.051Z,13.68
2023-03-29T05:06:38.610Z,13.72
2023-03-29T05:09:08.990Z,13.70
2023-03-29T05:12:05.426Z,13.66
2023-03-29T05:14:45.810Z,13.66
2023-03-29T05:17:12.879Z,13.56
2023-03-29T05:19:40.407Z,13.59
2023-03-29T05:22:09.027Z,13.57
2023-03-29T05:24:37.567Z,13.68
2023-03-29T05:27:11.781Z,13.74
2023-03-29T05:29:39.219Z,13.81
2023-03-29T05:32:23.999Z,13.84
2023-03-29T05:34:51.562Z,13.87
2023-03-29T05:37:19.116Z,13.88
2023-03-29T05:39:55.018Z,13.93
2023-03-29T05:42:37.817Z,13.96
2023-03-29T05:45:08.666Z,14.00
2023-03-29T05:47:36.115Z,13.91
2023-03-29T05:50:03.372Z,13.93
2023-03-29T05:52:30.910Z,13.80
2023-03-29T05:54:57.663Z,13.85
2023-03-29T05:57:24.458Z,13.79
2023-03-29T05:59:51.471Z,13.78
2023-03-29T06:02:18.880Z,13.63
2023-03-29T06:04:51.597Z,13.83
2023-03-29T06:07:24.716Z,13.93
2023-03-29T06:10:24.743Z,13.91
2023-03-29T06:12:58.172Z,14.05
2023-03-29T06:15:25.896Z,14.06
2023-03-29T06:17:59.992Z,14.01
2023-03-29T06:20:27.387Z,14.06
2023-03-29T06:23:00.449Z,14.20
2023-03-29T06:25:27.270Z,14.31
2023-03-29T06:27:54.269Z,14.29
2023-03-29T06:30:21.212Z,14.21
2023-03-29T06:32:51.878Z,14.18
2023-03-29T06:35:48.530Z,14.17
2023-03-29T06:38:21.127Z,14.33
2023-03-29T06:41:07.010Z,14.49
2023-03-29T06:44:06.098Z,14.66
2023-03-29T06:46:37.734Z,14.81
2023-03-29T06:49:08.175Z,14.92
2023-03-29T06:51:48.738Z,15.08
2023-03-29T06:54:15.741Z,15.22
2023-03-29T06:56:52.386Z,15.33
2023-03-29T06:59:21.613Z,15.34
2023-03-29T07:01:59.051Z,15.53
2023-03-29T07:04:41.852Z,15.61
2023-03-29T07:07:22.280Z,15.75
2023-03-29T07:10:01.840Z,15.86
2023-03-29T07:12:31.502Z,16.00
2023-03-29T07:15:00.791Z,15.99
2023-03-29T07:17:50.578Z,16.10
2023-03-29T07:20:17.741Z,16.20
2023-03-29T07:22:48.211Z,16.33
2023-03-29T07:25:16.480Z,16.38
2023-03-29T07:27:43.845Z,16.42
2023-03-29T07:30:14.013Z,16.51
2023-03-29T07:32:42.615Z,16.61
2023-03-29T07:35:32.851Z,16.63
2023-03-29T07:38:00.878Z,16.40
2023-03-29T07:40:28.137Z,16.41
2023-03-29T07:42:58.846Z,16.49
2023-03-29T07:45:29.073Z,16.51
2023-03-29T07:48:02.192Z,16.54
2023-03-29T07:50:46.112Z,16.76
2023-03-29T07:53:13.657Z,16.84
2023-03-29T07:55:47.654Z,16.91
2023-03-29T07:58:35.966Z,16.95
2023-03-29T08:01:03.723Z,17.13
2023-03-29T08:03:49.556Z,17.25
2023-03-29T08:06:17.744Z,17.32
2023-03-29T08:08:44.667Z,17.45
2023-03-29T08:11:15.390Z,17.38
2023-03-29T08:13:59.645Z,17.23
2023-03-29T08:16:26.971Z,17.39
2023-03-29T08:19:08.100Z,17.40
2023-03-29T08:21:53.996Z,17.55
2023-03-29T08:24:23.834Z,17.68
2023-03-29T08:26:55.926Z,17.68
2023-03-29T08:29:24.703Z,17.83
2023-03-29T08:31:51.545Z,17.89
2023-03-29T08:34:18.849Z,18.09
2023-03-29T08:36:59.168Z,18.01
2023-03-29T08:39:46.221Z,18.14
2023-03-29T08:42:47.319Z,18.30
2023-03-29T08:45:17.930Z,18.38
2023-03-29T08:47:58.933Z,18.58
2023-03-29T08:50:36.737Z,18.53
2023-03-29T08:53:16.296Z,18.55
2023-03-29T08:56:13.313Z,18.70
2023-03-29T08:59:01.176Z,18.78
2023-03-29T09:01:36.402Z,18.94
2023-03-29T09:04:11.704Z,19.04
2023-03-29T09:06:57.942Z,19.20
2023-03-29T09:09:33.769Z,19.32
2023-03-29T09:12:16.652Z,19.43
2023-03-29T09:14:58.912Z,19.54
2023-03-29T09:17:44.659Z,19.65
2023-03-29T09:20:21.845Z,19.76
2023-03-29T09:22:54.115Z,19.85
2023-03-29T09:25:54.178Z,19.87
2023-03-29T09:28:29.560Z,19.93
2023-03-29T09:31:04.024Z,20.01
2023-03-29T09:33:42.854Z,20.01
2023-03-29T09:36:24.880Z,20.03
2023-03-29T09:38:55.670Z,20.03
2023-03-29T09:41:35.872Z,20.06
2023-03-29T09:44:12.723Z,20.14
2023-03-29T09:46:58.611Z,20.20
2023-03-29T09:49:38.173Z,20.33
2023-03-29T09:52:11.531Z,20.38
2023-03-29T09:54:39.469Z,20.41
2023-03-29T09:57:27.483Z,20.48
2023-03-29T09:59:54.777Z,20.49
2023-03-29T10:02:22.126Z,20.48
2023-03-29T10:05:01.046Z,20.52
2023-03-29T10:07:54.707Z,20.62
2023-03-29T10:10:30.778Z,20.65
2023-03-29T10:13:03.334Z,20.68
2023-03-29T10:15:30.908Z,20.65
2023-03-29T10:18:03.915Z,20.74
2023-03-29T10:20:31.040Z,20.69
2023-03-29T10:22:59.405Z,20.84
2023-03-29T10:25:30.144Z,20.94
2023-03-29T10:28:06.114Z,20.89
2023-03-29T10:30:37.332Z,20.92
2023-03-29T10:33:05.175Z,21.07
2023-03-29T10:35:41.686Z,21.20
2023-03-29T10:38:15.000Z,21.19
2023-03-29T10:40:48.118Z,21.21
2023-03-29T10:43:17.815Z,21.28
2023-03-29T10:45:47.932Z,21.21
2023-03-29T10:48:17.534Z,21.32
2023-03-29T10:50:50.847Z,21.29
2023-03-29T10:53:26.315Z,21.39
2023-03-29T10:56:18.588Z,21.42
2023-03-29T10:59:03.713Z,21.48
2023-03-29T11:01:40.857Z,21.47
2023-03-29T11:04:19.471Z,21.34
2023-03-29T11:07:13.175Z,21.34
2023-03-29T11:10:04.015Z,21.34
2023-03-29T11:12:49.558Z,21.34
2023-03-29T11:15:44.105Z,21.18
2023-03-29T11:18:25.807Z,21.26
2023-03-29T11:21:00.665Z,21.36
2023-03-29T11:24:14.002Z,21.48
2023-03-29T11:27:18.011Z,21.44
2023-03-29T11:30:01.206Z,21.47
2023-03-29T11:32:37.400Z,21.47
2023-03-29T11:35:19.281Z,21.45
2023-03-29T11:38:22.933Z,21.44
2023-03-29T11:40:55.717Z,21.50
2023-03-29T11:43:35.071Z,21.52
2023-03-29T11:46:18.059Z,21.50
2023-03-29T11:48:56.995Z,21.56
2023-03-29T11:51:28.510Z,21.59
2023-03-29T11:54:04.195Z,21.51
2023-03-29T11:56:43.771Z,21.59
2023-03-29T11:59:36.176Z,21.69
2023-03-29T12:02:25.812Z,21.69
2023-03-29T12:04:55.419Z,21.58
2023-03-29T12:07:37.117Z,21.66
2023-03-29T12:10:14.843Z,21.67
2023-03-29T12:13:03.410Z,21.71
2023-03-29T12:15:54.117Z,21.56
2023-03-29T12:18:39.825Z,21.51
2023-03-29T12:21:14.427Z,21.51
2023-03-29T12:23:43.441Z,21.63
2023-03-29T12:26:43.729Z,21.69
2023-03-29T12:29:36.530Z,21.65
2023-03-29T12:32:32.030Z,21.80
2023-03-29T12:35:38.515Z,21.79
2023-03-29T12:38:30.980Z,21.83
2023-03-29T12:41:21.711Z,21.78
2023-03-29T12:44:23.651Z,21.77
2023-03-29T12:47:02.153Z,21.74
2023-03-29T12:49:35.995Z,21.78
2023-03-29T12:52:08.529Z,21.80
2023-03-29T12:54:35.425Z,21.75
2023-03-29T12:57:20.882Z,21.71
2023-03-29T12:59:49.684Z,21.84
2023-03-29T13:02:17.833Z,21.84
2023-03-29T13:04:52.464Z,21.94
2023-03-29T13:07:22.296Z,21.97
2023-03-29T13:09:59.407Z,21.88
2023-03-29T13:12:33.486Z,21.94
2023-03-29T13:15:22.101Z,21.88
2023-03-29T13:18:08.599Z,21.86
2023-03-29T13:21:20.971Z,21.79
2023-03-29T13:24:05.811Z,21.71
2023-03-29T13:26:46.105Z,21.70
2023-03-29T13:29:33.702Z,21.63
2023-03-29T13:32:27.144Z,21.71
2023-03-29T13:35:06.326Z,21.59
2023-03-29T13:37:36.708Z,21.63
2023-03-29T13:40:25.019Z,21.65
2023-03-29T13:43:04.535Z,21.61
2023-03-29T13:45:32.555Z,21.60
2023-03-29T13:48:25.090Z,21.61
2023-03-29T13:51:20.079Z,21.68
2023-03-29T13:53:55.110Z,21.68
2023-03-29T13:56:27.099Z,21.71
2023-03-29T13:58:55.922Z,21.68
2023-03-29T14:01:32.045Z,21.57
2023-03-29T14:03:59.455Z,21.67
2023-03-29T14:06:36.641Z,21.64
2023-03-29T14:09:09.014Z,21.59
2023-03-29T14:11:36.632Z,21.52
2023-03-29T14:14:07.388Z,21.59
2023-03-29T14:16:40.247Z,21.41
2023-03-29T14:19:24.807Z,21.48
2023-03-29T14:21:53.260Z,21.60
2023-03-29T14:24:27.269Z,21.57
2023-03-29T14:26:54.759Z,21.52
2023-03-29T14:29:22.951Z,21.57
2023-03-29T14:31:52.049Z,21.50
2023-03-29T14:34:19.254Z,21.41
2023-03-29T14:36:55.151Z,21.31
2023-03-29T14:39:23.442Z,21.37
2023-03-29T14:41:53.858Z,21.41
2023-03-29T14:44:26.089Z,21.37
2023-03-29T14:46:56.960Z,21.41
2023-03-29T14:49:24.736Z,21.45
2023-03-29T14:51:53.103Z,21.49
2023-03-29T14:54:29.632Z,21.47
2023-03-29T14:57:00.022Z,21.59
2023-03-29T14:59:29.655Z,21.53
2023-03-29T15:01:56.759Z,21.53
2023-03-29T15:04:23.891Z,21.60
2023-03-29T15:06:58.497Z,21.51
2023-03-29T15:09:32.605Z,21.56
2023-03-29T15:12:01.313Z,21.55
2023-03-29T15:14:33.885Z,21.72
2023-03-29T15:17:04.767Z,21.75
2023-03-29T15:19:32.250Z,21.58
2023-03-29T15:22:06.031Z,21.67
2023-03-29T15:24:33.881Z,21.60
2023-03-29T15:27:03.657Z,21.61
2023-03-29T15:29:41.773Z,21.67
2023-03-29T15:32:11.652Z,21.68
2023-03-29T15:34:38.549Z,21.76
2023-03-29T15:37:05.424Z,21.74
2023-03-29T15:39:32.398Z,21.82
2023-03-29T15:42:03.673Z,21.76
2023-03-29T15:44:33.385Z,21.84
2023-03-29T15:47:00.557Z,21.82
2023-03-29T15:49:27.584Z,21.90
2023-03-29T15:51:57.078Z,21.85
2023-03-29T15:54:24.841Z,21.76
2023-03-29T15:57:01.483Z,21.82
2023-03-29T15:59:28.392Z,21.69
2023-03-29T16:01:55.316Z,21.70
2023-03-29T16:04:22.446Z,21.64
2023-03-29T16:06:52.808Z,21.66
2023-03-29T16:09:20.853Z,21.66
2023-03-29T16:11:48.922Z,21.68
2023-03-29T16:14:31.496Z,21.60
2023-03-29T16:17:00.263Z,21.68
2023-03-29T16:19:28.752Z,21.54
2023-03-29T16:21:55.733Z,21.49
2023-03-29T16:24:25.917Z,21.53
2023-03-29T16:26:55.666Z,21.63
2023-03-29T16:29:23.533Z,21.57
2023-03-29T16:31:51.150Z,21.60
2023-03-29T16:34:19.169Z,21.46
2023-03-29T16:36:47.600Z,21.44
2023-03-29T16:39:14.656Z,21.50
2023-03-29T16:41:42.512Z,21.41
2023-03-29T16:44:16.183Z,21.48
2023-03-29T16:46:43.023Z,21.57
2023-03-29T16:49:14.027Z,21.54
2023-03-29T16:51:40.858Z,21.57
2023-03-29T16:54:07.621Z,21.62
2023-03-29T16:56:36.811Z,21.65
2023-03-29T16:59:03.776Z,21.68
2023-03-29T17:01:31.428Z,21.66
2023-03-29T17:03:58.410Z,21.63
2023-03-29T17:06:26.483Z,21.59
2023-03-29T17:08:53.796Z,21.53
2023-03-29T17:11:23.648Z,21.55
2023-03-29T17:13:50.507Z,21.40
2023-03-29T17:16:17.732Z,21.25
2023-03-29T17:18:44.570Z,21.11
2023-03-29T17:21:11.540Z,21.05
2023-03-29T17:23:41.440Z,20.95
2023-03-29T17:26:08.513Z,20.80
2023-03-29T17:28:35.952Z,20.70
2023-03-29T17:31:09.672Z,20.61
2023-03-29T17:33:37.071Z,20.57
2023-03-29T17:36:05.762Z,20.50
2023-03-29T17:38:34.254Z,20.47
2023-03-29T17:41:01.796Z,20.30
2023-03-29T17:43:28.620Z,20.24
2023-03-29T17:45:55.613Z,20.08
2023-03-29T17:48:24.002Z,20.01
2023-03-29T17:50:51.071Z,19.90
2023-03-29T17:53:18.038Z,19.80
2023-03-29T17:55:44.839Z,19.77
2023-03-29T17:58:11.812Z,19.72
2023-03-29T18:00:38.720Z,19.64
2023-03-29T18:03:05.904Z,19.61
2023-03-29T18:05:34.306Z,19.56
2023-03-29T18:08:01.487Z,19.51
2023-03-29T18:10:28.368Z,19.44
2023-03-29T18:12:55.128Z,19.40
2023-03-29T18:15:22.330Z,19.31
2023-03-29T18:17:49.228Z,19.31
2023-03-29T18:20:17.218Z,19.26
2023-03-29T18:22:44.435Z,19.22
2023-03-29T18:25:14.784Z,19.20
2023-03-29T18:27:44.150Z,19.17
2023-03-29T18:30:13.969Z,19.06
2023-03-29T18:32:41.057Z,18.98
2023-03-29T18:35:08.330Z,18.97
2023-03-29T18:37:37.385Z,18.93
2023-03-29T18:40:08.074Z,18.94
2023-03-29T18:42:34.935Z,18.92
2023-03-29T18:45:03.600Z,18.91
2023-03-29T18:47:30.575Z,18.91
2023-03-29T18:49:57.775Z,18.91
2023-03-29T18:52:24.488Z,18.91
2023-03-29T18:54:51.472Z,18.88
2023-03-29T18:57:18.485Z,18.84
2023-03-29T18:59:51.268Z,18.79
2023-03-29T19:02:18.012Z,18.74
2023-03-29T19:04:44.841Z,18.72
2023-03-29T19:07:11.806Z,18.72
2023-03-29T19:09:38.591Z,18.68
2023-03-29T19:12:05.779Z,18.65
2023-03-29T19:14:32.536Z,18.61
2023-03-29T19:17:02.096Z,18.62
2023-03-29T19:19:28.930Z,18.58
2023-03-29T19:21:58.336Z,18.58
2023-03-29T19:24:27.161Z,18.54
2023-03-29T19:26:54.009Z,18.49
2023-03-29T19:29:20.877Z,18.47
2023-03-29T19:31:47.755Z,18.49
2023-03-29T19:34:15.669Z,18.47
2023-03-29T19:36:42.442Z,18.41
2023-03-29T19:39:10.644Z,18.40
2023-03-29T19:41:38.210Z,18.34
2023-03-29T19:44:06.460Z,18.27
2023-03-29T19:46:33.221Z,18.31
2023-03-29T19:49:02.167Z,18.28
2023-03-29T19:51:30.874Z,18.27
2023-03-29T19:53:57.712Z,18.26
2023-03-29T19:56:25.987Z,18.25
2023-03-29T19:58:52.986Z,18.23
2023-03-29T20:01:21.100Z,18.21
2023-03-29T20:03:53.120Z,18.20
2023-03-29T20:06:20.626Z,18.19
2023-03-29T20:08:47.609Z,18.13
2023-03-29T20:11:15.897Z,18.12
2023-03-29T20:13:44.961Z,18.12
2023-03-29T20:16:14.870Z,18.14
2023-03-29T20:18:44.771Z,18.12
2023-03-29T20:21:16.787Z,18.12
2023-03-29T20:23:44.147Z,18.08
2023-03-29T20:26:11.151Z,18.01
2023-03-29T20:28:38.013Z,17.97
2023-03-29T20:31:07.170Z,17.97
2023-03-29T20:33:34.066Z,17.97
2023-03-29T20:36:01.001Z,17.94
2023-03-29T20:38:28.265Z,17.96
2023-03-29T20:40:55.432Z,17.96
2023-03-29T20:43:22.307Z,17.92
2023-03-29T20:45:54.065Z,17.90
2023-03-29T20:48:23.423Z,17.88
2023-03-29T20:50:51.495Z,17.85
2023-03-29T20:53:21.071Z,17.81
2023-03-29T20:55:48.133Z,17.78
2023-03-29T20:58:15.913Z,17.76
2023-03-29T21:00:43.723Z,17.75
2023-03-29T21:03:11.131Z,17.73
2023-03-29T21:05:38.898Z,17.72
2023-03-29T21:08:06.116Z,17.70
2023-03-29T21:10:33.260Z,17.67
2023-03-29T21:13:01.451Z,17.66
2023-03-29T21:15:30.683Z,17.65
2023-03-29T21:17:58.127Z,17.62
2023-03-29T21:20:25.023Z,17.59
2023-03-29T21:22:51.806Z,17.58
2023-03-29T21:25:18.899Z,17.55
2023-03-29T21:27:46.188Z,17.55
2023-03-29T21:30:13.265Z,17.53
2023-03-29T21:32:40.494Z,17.51
2023-03-29T21:35:08.050Z,17.51
2023-03-29T21:37:34.884Z,17.47
2023-03-29T21:40:05.677Z,17.48
2023-03-29T21:42:34.006Z,17.45
2023-03-29T21:45:01.031Z,17.44
2023-03-29T21:47:27.943Z,17.42
2023-03-29T21:49:54.753Z,17.42
2023-03-29T21:52:21.609Z,17.41
2023-03-29T21:54:48.414Z,17.41
2023-03-29T21:57:15.376Z,17.39
2023-03-29T21:59:42.459Z,17.40
2023-03-29T22:02:09.356Z,17.39
2023-03-29T22:04:37.698Z,17.33
2023-03-29T22:07:06.439Z,17.32
2023-03-29T22:09:35.145Z,17.32
2023-03-29T22:12:03.379Z,17.31
2023-03-29T22:14:34.622Z,17.28
2023-03-29T22:17:01.844Z,17.27
2023-03-29T22:19:31.310Z,17.24
2023-03-29T22:22:01.520Z,17.21
2023-03-29T22:24:29.139Z,17.22
2023-03-29T22:26:58.610Z,17.20
2023-03-29T22:29:25.497Z,17.21
2023-03-29T22:31:52.343Z,17.10
2023-03-29T22:34:19.150Z,17.07
2023-03-29T22:36:45.928Z,17.05
2023-03-29T22:39:13.475Z,16.93
2023-03-29T22:41:40.294Z,16.92
2023-03-29T22:44:07.210Z,16.90
2023-03-29T22:46:34.191Z,16.86
2023-03-29T22:49:01.166Z,16.82
2023-03-29T22:51:27.940Z,16.83
2023-03-29T22:53:54.770Z,16.78
2023-03-29T22:56:22.089Z,16.81
2023-03-29T22:58:48.972Z,16.80
2023-03-29T23:01:15.832Z,16.73
2023-03-29T23:03:42.723Z,16.73
2023-03-29T23:06:09.534Z,16.71
2023-03-29T23:08:36.322Z,16.58
2023-03-29T23:11:04.361Z,16.59
2023-03-29T23:13:31.429Z,16.56
2023-03-29T23:16:00.414Z,16.53
2023-03-29T23:18:30.309Z,16.49
2023-03-29T23:20:58.959Z,16.49
2023-03-29T23:23:27.285Z,16.48
2023-03-29T23:25:58.256Z,16.48
2023-03-29T23:28:30.288Z,16.48
2023-03-29T23:31:11.593Z,16.45
2023-03-29T23:33:42.834Z,16.44
2023-03-29T23:36:15.440Z,16.42
2023-03-29T23:38:44.926Z,16.44
2023-03-29T23:41:12.911Z,16.44
2023-03-29T23:43:42.466Z,16.38
2023-03-29T23:46:15.281Z,16.43
2023-03-29T23:48:50.252Z,16.44
2023-03-29T23:51:18.917Z,16.43
2023-03-29T23:53:46.569Z,16.43
2023-03-29T23:56:13.372Z,16.44
2023-03-29T23:58:40.144Z,16.43
